createdAt,value
2023-10-15T00:04:18.454Z,9.63
2023-10-15T00:09:20.260Z,9.57
2023-10-15T00:14:21.902Z,9.54
2023-10-15T00:19:23.705Z,9.59
2023-10-15T00:24:26.857Z,9.52
2023-10-15T00:29:29.016Z,9.59
2023-10-15T00:34:31.855Z,9.54
2023-10-15T00:39:38.330Z,9.42
2023-10-15T00:44:39.974Z,9.33
2023-10-15T00:49:42.788Z,9.31
2023-10-15T00:54:44.559Z,9.22
2023-10-15T00:59:49.306Z,9.15
2023-10-15T01:04:52.457Z,9.06
2023-10-15T01:09:54.140Z,9.01
2023-10-15T01:14:55.808Z,9.04
2023-10-15T01:19:57.799Z,8.97
2023-10-15T01:25:10.638Z,9.00
2023-10-15T01:30:18.561Z,9.01
2023-10-15T01:35:20.458Z,8.89
2023-10-15T01:40:38.624Z,8.68
2023-10-15T01:45:42.100Z,8.57
2023-10-15T01:50:50.942Z,8.52
2023-10-15T01:55:58.326Z,8.51
2023-10-15T02:01:15.181Z,8.52
2023-10-15T02:06:21.379Z,8.42
2023-10-15T02:11:23.331Z,8.36
2023-10-15T02:16:34.103Z,8.32
2023-10-15T02:21:38.571Z,8.24
2023-10-15T02:26:40.242Z,8.20
2023-10-15T02:31:48.021Z,8.07
2023-10-15T02:36:49.829Z,8.01
2023-10-15T02:41:53.479Z,8.01
2023-10-15T02:47:07.928Z,8.06
2023-10-15T02:52:19.277Z,8.02
2023-10-15T02:57:22.560Z,7.97
2023-10-15T03:02:27.073Z,7.93
2023-10-15T03:07:34.835Z,7.84
2023-10-15T03:12:36.614Z,7.94
2023-10-15T03:17:42.279Z,7.87
2023-10-15T03:22:48.071Z,7.80
2023-10-15T03:27:49.789Z,7.81
2023-10-15T03:32:53.954Z,7.75
2023-10-15T03:38:00.978Z,7.77
2023-10-15T03:43:08.095Z,7.74
2023-10-15T03:48:15.733Z,7.76
2023-10-15T03:53:22.150Z,7.77
2023-10-15T03:58:24.414Z,7.73
2023-10-15T04:03:36.682Z,7.79
2023-10-15T04:08:38.596Z,7.71
2023-10-15T04:13:40.313Z,7.73
2023-10-15T04:18:42.057Z,7.74
2023-10-15T04:23:50.390Z,7.75
2023-10-15T04:28:54.439Z,7.77
2023-10-15T04:33:56.247Z,7.74
2023-10-15T04:39:12.914Z,7.72
2023-10-15T04:44:22.402Z,7.68
2023-10-15T04:49:24.393Z,7.62
2023-10-15T04:54:26.882Z,7.55
2023-10-15T04:59:28.659Z,7.56
2023-10-15T05:04:30.325Z,7.48
2023-10-15T05:09:32.379Z,7.51
2023-10-15T05:14:34.201Z,7.47
2023-10-15T05:19:35.898Z,7.47
2023-10-15T05:24:38.005Z,7.39
2023-10-15T05:29:42.618Z,7.33
2023-10-15T05:34:44.404Z,7.30
2023-10-15T05:39:46.094Z,7.34
2023-10-15T05:44:47.803Z,7.34
2023-10-15T05:49:50.402Z,7.36
2023-10-15T05:54:54.696Z,7.32
2023-10-15T05:59:56.362Z,7.30
2023-10-15T06:04:58.045Z,7.30
2023-10-15T06:09:59.850Z,7.34
2023-10-15T06:15:01.686Z,7.41
2023-10-15T06:20:24.124Z,7.45
2023-10-15T06:25:26.403Z,7.54
2023-10-15T06:30:28.328Z,7.66
2023-10-15T06:35:30.080Z,7.73
2023-10-15T06:40:33.139Z,7.82
2023-10-15T06:45:34.967Z,7.97
2023-10-15T06:50:36.752Z,8.04
2023-10-15T06:55:38.522Z,8.17
2023-10-15T07:00:40.314Z,8.23
2023-10-15T07:05:46.316Z,8.39
2023-10-15T07:10:48.007Z,8.49
2023-10-15T07:15:49.642Z,8.50
2023-10-15T07:20:51.288Z,8.58
2023-10-15T07:25:52.981Z,8.65
2023-10-15T07:30:54.789Z,8.79
2023-10-15T07:36:00.412Z,8.88
2023-10-15T07:41:02.477Z,8.99
2023-10-15T07:46:05.074Z,9.14
2023-10-15T07:51:06.930Z,9.14
2023-10-15T07:56:08.687Z,9.41
2023-10-15T08:01:12.598Z,9.44
2023-10-15T08:06:15.675Z,9.49
2023-10-15T08:11:17.472Z,9.67
2023-10-15T08:16:19.620Z,9.77
2023-10-15T08:21:22.848Z,9.52
2023-10-15T08:26:24.508Z,9.72
2023-10-15T08:31:26.205Z,10.08
2023-10-15T08:36:28.226Z,10.17
2023-10-15T08:41:31.173Z,10.23
2023-10-15T08:46:36.257Z,10.15
2023-10-15T08:51:38.438Z,10.48
2023-10-15T08:56:41.716Z,10.71
2023-10-15T09:01:44.044Z,10.76
2023-10-15T09:06:48.943Z,10.88
2023-10-15T09:11:51.958Z,10.85
2023-10-15T09:16:55.224Z,11.12
2023-10-15T09:21:58.264Z,11.17
2023-10-15T09:27:00.591Z,11.16
2023-10-15T09:32:04.064Z,11.00
2023-10-15T09:37:07.932Z,10.99
2023-10-15T09:42:11.280Z,10.90
2023-10-15T09:47:14.092Z,10.78
2023-10-15T09:52:16.814Z,10.69
2023-10-15T09:57:19.079Z,10.54
2023-10-15T10:02:33.856Z,10.34
2023-10-15T10:07:55.798Z,10.33
2023-10-15T10:13:08.093Z,10.40
2023-10-15T10:18:09.905Z,10.35
2023-10-15T10:23:12.029Z,10.38
2023-10-15T10:28:18.078Z,10.38
2023-10-15T10:33:41.794Z,10.49
2023-10-15T10:38:47.899Z,10.34
2023-10-15T10:43:54.147Z,10.20
2023-10-15T10:49:14.803Z,10.28
2023-10-15T10:54:16.717Z,10.78
2023-10-15T10:59:20.070Z,10.65
2023-10-15T11:04:21.766Z,10.95
2023-10-15T11:09:26.416Z,10.95
2023-10-15T11:14:28.712Z,10.73
2023-10-15T11:19:30.493Z,10.73
2023-10-15T11:24:32.494Z,10.86
2023-10-15T11:29:34.593Z,10.92
2023-10-15T11:34:36.590Z,11.26
2023-10-15T11:39:38.435Z,11.19
2023-10-15T11:44:43.954Z,10.72
2023-10-15T11:49:46.413Z,10.54
2023-10-15T11:54:52.352Z,10.06
2023-10-15T11:59:56.992Z,10.04
2023-10-15T12:05:02.848Z,10.42
2023-10-15T12:10:15.319Z,10.55
2023-10-15T12:15:17.136Z,10.88
2023-10-15T12:20:20.448Z,11.07
2023-10-15T12:25:23.464Z,10.71
2023-10-15T12:30:25.227Z,10.46
2023-10-15T12:35:30.726Z,10.33
2023-10-15T12:40:39.900Z,10.43
2023-10-15T12:45:45.264Z,10.41
2023-10-15T12:50:51.601Z,10.44
2023-10-15T12:55:53.667Z,10.26
2023-10-15T13:00:55.413Z,10.11
2023-10-15T13:05:57.169Z,10.10
2023-10-15T13:10:58.963Z,10.15
2023-10-15T13:16:00.716Z,10.29
2023-10-15T13:21:02.462Z,10.38
2023-10-15T13:26:06.091Z,10.43
2023-10-15T13:31:08.144Z,10.53
2023-10-15T13:36:10.515Z,10.44
2023-10-15T13:41:13.211Z,10.54
2023-10-15T13:46:15.108Z,10.45
2023-10-15T13:51:17.301Z,10.37
2023-10-15T13:56:20.732Z,9.72
2023-10-15T14:01:22.535Z,7.89
2023-10-15T14:06:24.275Z,7.00
2023-10-15T14:11:26.193Z,6.83
2023-10-15T14:16:28.266Z,6.85
2023-10-15T14:21:30.465Z,6.94
2023-10-15T14:26:32.843Z,6.99
2023-10-15T14:31:34.612Z,7.05
2023-10-15T14:36:40.357Z,7.08
2023-10-15T14:41:42.135Z,7.17
2023-10-15T14:46:43.946Z,7.21
2023-10-15T14:51:45.694Z,7.19
2023-10-15T14:56:48.984Z,7.19
2023-10-15T15:01:50.751Z,7.17
2023-10-15T15:06:53.239Z,7.23
2023-10-15T15:11:54.910Z,7.26
2023-10-15T15:16:56.835Z,7.30
2023-10-15T15:21:58.897Z,7.30
2023-10-15T15:27:00.668Z,7.30
2023-10-15T15:32:02.440Z,7.29
2023-10-15T15:37:04.197Z,7.25
2023-10-15T15:42:07.945Z,7.21
2023-10-15T15:47:12.158Z,7.13
2023-10-15T15:52:14.880Z,7.14
2023-10-15T15:57:18.525Z,7.10
2023-10-15T16:02:20.361Z,7.09
2023-10-15T16:07:23.215Z,7.12
2023-10-15T16:12:24.857Z,7.11
2023-10-15T16:17:26.597Z,7.16
2023-10-15T16:22:28.672Z,7.16
2023-10-15T16:27:32.247Z,7.12
2023-10-15T16:32:34.139Z,7.11
2023-10-15T16:37:36.855Z,7.14
2023-10-15T16:42:38.542Z,7.15
2023-10-15T16:47:40.330Z,7.18
2023-10-15T16:52:42.124Z,7.14
2023-10-15T16:57:43.780Z,7.11
2023-10-15T17:02:47.436Z,7.04
2023-10-15T17:07:49.176Z,7.00
2023-10-15T17:12:52.367Z,6.97
2023-10-15T17:17:54.142Z,6.92
2023-10-15T17:22:58.019Z,6.93
2023-10-15T17:27:59.656Z,6.89
2023-10-15T17:33:04.396Z,6.84
2023-10-15T17:38:06.397Z,6.80
2023-10-15T17:43:08.400Z,6.78
2023-10-15T17:48:11.120Z,6.74
2023-10-15T17:53:12.960Z,6.73
2023-10-15T17:58:14.624Z,6.74
2023-10-15T18:03:16.657Z,6.72
2023-10-15T18:08:18.573Z,6.69
2023-10-15T18:13:20.244Z,6.67
2023-10-15T18:18:22.042Z,6.67
2023-10-15T18:23:23.860Z,6.64
2023-10-15T18:28:25.619Z,6.64
2023-10-15T18:33:27.323Z,6.60
2023-10-15T18:38:29.004Z,6.54
2023-10-15T18:43:30.739Z,6.49
2023-10-15T18:48:32.592Z,6.39
2023-10-15T18:53:35.511Z,6.39
2023-10-15T18:58:37.171Z,6.34
2023-10-15T19:03:39.157Z,6.37
2023-10-15T19:08:41.036Z,6.41
2023-10-15T19:13:42.692Z,6.44
2023-10-15T19:18:45.937Z,6.56
2023-10-15T19:23:47.812Z,6.66
2023-10-15T19:28:51.470Z,6.69
2023-10-15T19:33:53.382Z,6.69
2023-10-15T19:38:55.049Z,6.72
2023-10-15T19:43:56.731Z,6.68
2023-10-15T19:48:59.236Z,6.57
2023-10-15T19:54:01.151Z,6.57
2023-10-15T19:59:02.864Z,6.54
2023-10-15T20:04:08.463Z,6.47
2023-10-15T20:09:13.501Z,6.33
2023-10-15T20:14:15.489Z,6.29
2023-10-15T20:19:17.906Z,6.19
2023-10-15T20:24:19.787Z,6.16
2023-10-15T20:29:21.545Z,6.13
2023-10-15T20:34:23.318Z,6.12
2023-10-15T20:39:26.029Z,6.05
2023-10-15T20:44:28.134Z,6.06
2023-10-15T20:49:30.135Z,6.06
2023-10-15T20:54:31.849Z,6.07
2023-10-15T20:59:33.525Z,6.06
2023-10-15T21:04:35.220Z,6.04
2023-10-15T21:09:37.311Z,6.03
2023-10-15T21:14:39.087Z,6.03
2023-10-15T21:19:40.908Z,6.03
2023-10-15T21:24:42.621Z,6.00
2023-10-15T21:29:44.325Z,5.97
2023-10-15T21:34:45.981Z,5.92
2023-10-15T21:39:49.590Z,5.90
2023-10-15T21:44:51.329Z,5.92
2023-10-15T21:49:53.755Z,5.90
2023-10-15T21:54:55.589Z,5.88
2023-10-15T21:59:57.314Z,5.80
2023-10-15T22:04:58.961Z,5.74
2023-10-15T22:10:00.815Z,5.71
2023-10-15T22:15:02.542Z,5.70
2023-10-15T22:20:13.603Z,5.77
2023-10-15T22:25:15.910Z,5.71
2023-10-15T22:30:20.750Z,5.67
2023-10-15T22:35:25.037Z,5.60
2023-10-15T22:40:27.764Z,5.57
2023-10-15T22:45:30.277Z,5.54
2023-10-15T22:50:32.793Z,5.51
2023-10-15T22:55:34.973Z,5.53
2023-10-15T23:00:37.334Z,5.49
2023-10-15T23:05:39.320Z,5.54
2023-10-15T23:10:41.376Z,5.57
2023-10-15T23:15:43.257Z,5.57
2023-10-15T23:20:44.921Z,5.57
2023-10-15T23:25:46.779Z,5.59
2023-10-15T23:30:52.940Z,5.64
2023-10-15T23:35:55.044Z,5.58
2023-10-15T23:40:56.787Z,5.55
2023-10-15T23:46:16.710Z,5.53
2023-10-15T23:51:19.028Z,5.49
2023-10-15T23:56:33.066Z,5.44
